sensor_id;sensor_type;location;lat;lon;timestamp;pressure;altitude;pressure_sealevel;temperature;humidity
12664;BME280;6396;58.490;15.528;2023-03-04T00:02:11;99354.25;;;-1.68;54.03
12664;BME280;6396;58.490;15.528;2023-03-04T00:04:40;99317.09;;;-1.96;53.13
12664;BME280;6396;58.490;15.528;2023-03-04T00:07:07;99215.06;;;-3.08;54.74
12664;BME280;6396;58.490;15.528;2023-03-04T00:09:34;99931.03;;;0.69;54.06
12664;BME280;6396;58.490;15.528;2023-03-04T00:12:01;99761.22;;;-0.34;54.73
12664;BME280;6396;58.490;15.528;2023-03-04T00:14:28;99330.78;;;-2.26;54.36
12664;BME280;6396;58.490;15.528;2023-03-04T00:16:55;99972.69;;;1.58;53.98
12664;BME280;6396;58.490;15.528;2023-03-04T00:19:22;100354.59;;;2.96;53.57
12664;BME280;6396;58.490;15.528;2023-03-04T00:21:51;100180.78;;;2.98;53.61
12664;BME280;6396;58.490;15.528;2023-03-04T00:24:19;99938.03;;;1.57;53.86
12664;BME280;6396;58.490;15.528;2023-03-04T00:26:45;99846.22;;;0.98;53.58
12664;BME280;6396;58.490;15.528;2023-03-04T00:29:12;99902.50;;;0.91;53.65
12664;BME280;6396;58.490;15.528;2023-03-04T00:31:39;100176.47;;;2.86;54.43
12664;BME280;6396;58.490;15.528;2023-03-04T00:34:06;100266.81;;;2.89;54.99
12664;BME280;6396;58.490;15.528;2023-03-04T00:36:33;100152.16;;;2.77;56.40
12664;BME280;6396;58.490;15.528;2023-03-04T00:39:01;99597.00;;;-0.51;54.38
12664;BME280;6396;58.490;15.528;2023-03-04T00:41:28;99985.69;;;1.17;53.80
12664;BME280;6396;58.490;15.528;2023-03-04T00:43:55;100201.69;;;2.80;55.04
12664;BME280;6396;58.490;15.528;2023-03-04T00:46:21;100311.16;;;2.78;54.89
12664;BME280;6396;58.490;15.528;2023-03-04T00:48:48;100058.56;;;1.73;55.02
12664;BME280;6396;58.490;15.528;2023-03-04T00:51:15;100092.34;;;2.10;54.76
12664;BME280;6396;58.490;15.528;2023-03-04T00:53:42;99945.84;;;1.15;54.88
12664;BME280;6396;58.490;15.528;2023-03-04T00:56:10;100211.25;;;2.72;54.76
12664;BME280;6396;58.490;15.528;2023-03-04T00:58:37;99722.25;;;-0.51;53.80
12664;BME280;6396;58.490;15.528;2023-03-04T01:01:04;100252.97;;;2.66;55.70
12664;BME280;6396;58.490;15.528;2023-03-04T01:03:31;99981.38;;;1.55;56.38
12664;BME280;6396;58.490;15.528;2023-03-04T01:05:59;100042.06;;;1.90;55.72
12664;BME280;6396;58.490;15.528;2023-03-04T01:08:25;100124.44;;;2.37;56.72
12664;BME280;6396;58.490;15.528;2023-03-04T01:10:52;100200.88;;;2.45;55.46
12664;BME280;6396;58.490;15.528;2023-03-04T01:13:21;100259.91;;;2.64;55.05
12664;BME280;6396;58.490;15.528;2023-03-04T01:15:47;99980.47;;;1.59;54.41
12664;BME280;6396;58.490;15.528;2023-03-04T01:18:14;99563.16;;;-1.19;52.79
12664;BME280;6396;58.490;15.528;2023-03-04T01:20:41;100222.56;;;2.57;53.66
12664;BME280;6396;58.490;15.528;2023-03-04T01:23:08;100037.72;;;1.53;52.02
12664;BME280;6396;58.490;15.528;2023-03-04T01:25:35;99830.59;;;0.53;53.00
12664;BME280;6396;58.490;15.528;2023-03-04T01:28:02;99972.69;;;1.26;53.46
12664;BME280;6396;58.490;15.528;2023-03-04T01:30:30;99942.34;;;1.05;54.63
12664;BME280;6396;58.490;15.528;2023-03-04T01:32:57;99813.25;;;0.31;54.04
12664;BME280;6396;58.490;15.528;2023-03-04T01:35:24;99434.34;;;-1.94;53.69
12664;BME280;6396;58.490;15.528;2023-03-04T01:37:51;100017.75;;;1.40;55.55
12664;BME280;6396;58.490;15.528;2023-03-04T01:40:18;100021.25;;;1.36;54.75
12664;BME280;6396;58.490;15.528;2023-03-04T01:42:45;100094.06;;;1.56;55.30
12664;BME280;6396;58.490;15.528;2023-03-04T01:45:13;100192.19;;;2.29;53.48
12664;BME280;6396;58.490;15.528;2023-03-04T01:47:43;99919.75;;;0.49;52.79
12664;BME280;6396;58.490;15.528;2023-03-04T01:50:18;100227.75;;;2.32;51.92
12664;BME280;6396;58.490;15.528;2023-03-04T01:52:46;100240.78;;;2.33;51.76
12664;BME280;6396;58.490;15.528;2023-03-04T01:55:17;99848.72;;;0.32;49.76
12664;BME280;6396;58.490;15.528;2023-03-04T01:57:45;100115.81;;;1.82;51.12
12664;BME280;6396;58.490;15.528;2023-03-04T02:00:33;99875.53;;;0.20;47.56
12664;BME280;6396;58.490;15.528;2023-03-04T02:03:04;100147.03;;;1.97;49.37
12664;BME280;6396;58.490;15.528;2023-03-04T02:05:32;100200.84;;;2.16;49.78
12664;BME280;6396;58.490;15.528;2023-03-04T02:08:02;99886.81;;;0.30;49.50
12664;BME280;6396;58.490;15.528;2023-03-04T02:10:30;100045.47;;;1.25;49.15
12664;BME280;6396;58.490;15.528;2023-03-04T02:12:57;99880.75;;;0.28;50.02
12664;BME280;6396;58.490;15.528;2023-03-04T02:15:25;100009.69;;;0.42;48.56
12664;BME280;6396;58.490;15.528;2023-03-04T02:17:51;100054.13;;;1.13;49.48
12664;BME280;6396;58.490;15.528;2023-03-04T02:20:34;100094.84;;;1.06;49.30
12664;BME280;6396;58.490;15.528;2023-03-04T02:23:08;100261.59;;;2.04;48.40
12664;BME280;6396;58.490;15.528;2023-03-04T02:25:42;100198.22;;;2.02;49.39
12664;BME280;6396;58.490;15.528;2023-03-04T02:28:12;100028.13;;;0.98;49.63
12664;BME280;6396;58.490;15.528;2023-03-04T02:30:39;100094.06;;;1.41;50.45
12664;BME280;6396;58.490;15.528;2023-03-04T02:33:12;100142.59;;;1.34;50.44
12664;BME280;6396;58.490;15.528;2023-03-04T02:35:40;100129.38;;;0.81;51.06
12664;BME280;6396;58.490;15.528;2023-03-04T02:38:08;99433.56;;;-3.11;50.46
12664;BME280;6396;58.490;15.528;2023-03-04T02:40:35;99773.19;;;-0.59;50.05
12664;BME280;6396;58.490;15.528;2023-03-04T02:43:04;100271.06;;;1.87;50.16
12664;BME280;6396;58.490;15.528;2023-03-04T02:45:37;100055.81;;;1.02;50.53
12664;BME280;6396;58.490;15.528;2023-03-04T02:48:05;100225.94;;;1.81;50.21
12664;BME280;6396;58.490;15.528;2023-03-04T02:50:35;100201.66;;;1.77;48.70
12664;BME280;6396;58.490;15.528;2023-03-04T02:53:04;99786.09;;;-0.66;50.37
12664;BME280;6396;58.490;15.528;2023-03-04T02:55:31;100097.47;;;1.25;49.61
12664;BME280;6396;58.490;15.528;2023-03-04T02:57:58;100210.31;;;1.73;50.89
12664;BME280;6396;58.490;15.528;2023-03-04T03:00:26;100071.28;;;0.69;51.76
12664;BME280;6396;58.490;15.528;2023-03-04T03:02:55;100197.28;;;1.73;50.19
12664;BME280;6396;58.490;15.528;2023-03-04T03:05:23;100200.75;;;1.63;50.88
12664;BME280;6396;58.490;15.528;2023-03-04T03:07:51;100073.03;;;0.70;50.71
12664;BME280;6396;58.490;15.528;2023-03-04T03:10:17;99767.00;;;-0.89;49.44
12664;BME280;6396;58.490;15.528;2023-03-04T03:12:44;100052.22;;;0.67;50.17
12664;BME280;6396;58.490;15.528;2023-03-04T03:15:12;100192.06;;;1.63;50.95
12664;BME280;6396;58.490;15.528;2023-03-04T03:17:39;100041.00;;;0.75;51.05
12664;BME280;6396;58.490;15.528;2023-03-04T03:20:09;99627.56;;;-1.72;50.17
12664;BME280;6396;58.490;15.528;2023-03-04T03:22:37;100264.88;;;1.54;50.55
12664;BME280;6396;58.490;15.528;2023-03-04T03:25:05;99335.25;;;-3.40;50.67
12664;BME280;6396;58.490;15.528;2023-03-04T03:27:32;99818.94;;;-0.68;51.14
12664;BME280;6396;58.490;15.528;2023-03-04T03:29:59;100272.69;;;1.52;51.25
12664;BME280;6396;58.490;15.528;2023-03-04T03:32:26;99871.84;;;-0.32;51.25
12664;BME280;6396;58.490;15.528;2023-03-04T03:34:53;99630.09;;;-1.78;50.62
12664;BME280;6396;58.490;15.528;2023-03-04T03:37:22;99756.53;;;-1.09;50.89
12664;BME280;6396;58.490;15.528;2023-03-04T03:39:49;100242.28;;;1.38;51.16
12664;BME280;6396;58.490;15.528;2023-03-04T03:42:16;99619.69;;;-1.85;50.60
12664;BME280;6396;58.490;15.528;2023-03-04T03:44:43;99514.41;;;-3.12;49.67
12664;BME280;6396;58.490;15.528;2023-03-04T03:47:11;99707.38;;;-2.14;49.66
12664;BME280;6396;58.490;15.528;2023-03-04T03:49:41;99626.56;;;-1.92;50.09
12664;BME280;6396;58.490;15.528;2023-03-04T03:52:10;99568.59;;;-2.21;49.16
12664;BME280;6396;58.490;15.528;2023-03-04T03:54:38;99421.31;;;-3.32;50.21
12664;BME280;6396;58.490;15.528;2023-03-04T03:57:05;99852.66;;;-0.59;49.74
12664;BME280;6396;58.490;15.528;2023-03-04T03:59:32;99843.06;;;-0.78;49.10
12664;BME280;6396;58.490;15.528;2023-03-04T04:01:59;100090.41;;;0.78;48.89
12664;BME280;6396;58.490;15.528;2023-03-04T04:04:25;100186.75;;;1.21;49.65
12664;BME280;6396;58.490;15.528;2023-03-04T04:06:52;100210.97;;;1.15;49.23
12664;BME280;6396;58.490;15.528;2023-03-04T04:09:19;100119.69;;;0.58;48.48
12664;BME280;6396;58.490;15.528;2023-03-04T04:11:47;100243.84;;;1.08;48.96
12664;BME280;6396;58.490;15.528;2023-03-04T04:14:15;100059.78;;;0.20;49.64
12664;BME280;6396;58.490;15.528;2023-03-04T04:16:41;100195.31;;;1.03;50.10
12664;BME280;6396;58.490;15.528;2023-03-04T04:19:15;100238.63;;;1.05;49.00
12664;BME280;6396;58.490;15.528;2023-03-04T04:21:43;100219.56;;;1.03;49.03
12664;BME280;6396;58.490;15.528;2023-03-04T04:24:09;99966.03;;;-0.33;49.20
12664;BME280;6396;58.490;15.528;2023-03-04T04:26:36;100252.44;;;0.95;49.79
12664;BME280;6396;58.490;15.528;2023-03-04T04:29:05;99684.63;;;-2.48;48.28
12664;BME280;6396;58.490;15.528;2023-03-04T04:31:32;100072.75;;;0.22;48.77
12664;BME280;6396;58.490;15.528;2023-03-04T04:33:59;100205.66;;;0.91;48.13
12664;BME280;6396;58.490;15.528;2023-03-04T04:36:26;100129.25;;;0.56;48.19
12664;BME280;6396;58.490;15.528;2023-03-04T04:38:53;100111.75;;;0.32;48.17
12664;BME280;6396;58.490;15.528;2023-03-04T04:41:21;100181.34;;;0.84;48.19
12664;BME280;6396;58.490;15.528;2023-03-04T04:43:49;100088.16;;;-0.07;47.64
12664;BME280;6396;58.490;15.528;2023-03-04T04:46:18;100216.72;;;0.64;48.20
12664;BME280;6396;58.490;15.528;2023-03-04T04:48:45;100032.81;;;-0.03;47.71
12664;BME280;6396;58.490;15.528;2023-03-04T04:51:12;100192.59;;;0.82;48.42
12664;BME280;6396;58.490;15.528;2023-03-04T04:53:39;100186.47;;;0.75;48.45
12664;BME280;6396;58.490;15.528;2023-03-04T04:56:11;100189.94;;;0.77;47.44
12664;BME280;6396;58.490;15.528;2023-03-04T04:58:38;100067.06;;;-0.45;48.77
12664;BME280;6396;58.490;15.528;2023-03-04T05:01:05;100150.69;;;0.29;49.17
12664;BME280;6396;58.490;15.528;2023-03-04T05:03:34;100010.13;;;-0.30;49.55
12664;BME280;6396;58.490;15.528;2023-03-04T05:06:02;100051.00;;;0.00;48.39
12664;BME280;6396;58.490;15.528;2023-03-04T05:08:30;100131.66;;;0.32;49.18
12664;BME280;6396;58.490;15.528;2023-03-04T05:10:57;100187.34;;;0.73;49.18
12664;BME280;6396;58.490;15.528;2023-03-04T05:13:24;100210.72;;;0.71;48.47
12664;BME280;6396;58.490;15.528;2023-03-04T05:15:51;100128.06;;;0.13;48.15
12664;BME280;6396;58.490;15.528;2023-03-04T05:18:19;100146.22;;;0.13;47.72
12664;BME280;6396;58.490;15.528;2023-03-04T05:20:50;100063.69;;;-0.36;48.34
12664;BME280;6396;58.490;15.528;2023-03-04T05:23:18;99802.38;;;-1.93;48.86
12664;BME280;6396;58.490;15.528;2023-03-04T05:25:45;100186.25;;;0.41;48.09
12664;BME280;6396;58.490;15.528;2023-03-04T05:28:13;100248.63;;;0.50;47.38
12664;BME280;6396;58.490;15.528;2023-03-04T05:30:41;99915.00;;;-1.45;47.24
12664;BME280;6396;58.490;15.528;2023-03-04T05:33:08;99781.88;;;-2.52;47.95
12664;BME280;6396;58.490;15.528;2023-03-04T05:35:37;100196.59;;;0.36;48.73
12664;BME280;6396;58.490;15.528;2023-03-04T05:38:07;99857.91;;;-1.61;48.18
12664;BME280;6396;58.490;15.528;2023-03-04T05:40:35;100215.63;;;0.35;46.93
12664;BME280;6396;58.490;15.528;2023-03-04T05:43:02;100125.25;;;-0.14;47.57
12664;BME280;6396;58.490;15.528;2023-03-04T05:45:28;100293.53;;;0.37;47.33
12664;BME280;6396;58.490;15.528;2023-03-04T05:47:56;99885.59;;;-1.54;46.22
12664;BME280;6396;58.490;15.528;2023-03-04T05:50:23;100206.94;;;0.32;46.88
12664;BME280;6396;58.490;15.528;2023-03-04T05:52:49;100303.81;;;0.28;46.95
12664;BME280;6396;58.490;15.528;2023-03-04T05:55:18;100196.22;;;-0.06;46.99
12664;BME280;6396;58.490;15.528;2023-03-04T05:57:45;99372.28;;;-4.80;45.81
12664;BME280;6396;58.490;15.528;2023-03-04T06:00:13;100277.78;;;0.22;47.48
12664;BME280;6396;58.490;15.528;2023-03-04T06:02:41;99910.50;;;-1.62;48.03
12664;BME280;6396;58.490;15.528;2023-03-04T06:05:10;99968.31;;;-1.60;46.92
12664;BME280;6396;58.490;15.528;2023-03-04T06:07:37;100203.34;;;0.15;46.80
12664;BME280;6396;58.490;15.528;2023-03-04T06:10:04;99362.63;;;-4.95;46.96
12664;BME280;6396;58.490;15.528;2023-03-04T06:12:33;100149.91;;;-0.54;45.73
12664;BME280;6396;58.490;15.528;2023-03-04T06:15:00;100094.56;;;-0.62;45.83
12664;BME280;6396;58.490;15.528;2023-03-04T06:17:28;100183.28;;;-0.03;45.25
12664;BME280;6396;58.490;15.528;2023-03-04T06:19:55;99873.59;;;-2.22;46.42
12664;BME280;6396;58.490;15.528;2023-03-04T06:22:22;100097.06;;;-0.71;45.77
12664;BME280;6396;58.490;15.528;2023-03-04T06:24:48;100135.00;;;-0.76;45.56
12664;BME280;6396;58.490;15.528;2023-03-04T06:27:15;100250.94;;;0.17;44.56
12664;BME280;6396;58.490;15.528;2023-03-04T06:29:44;99669.84;;;-3.31;45.76
12664;BME280;6396;58.490;15.528;2023-03-04T06:32:10;100010.75;;;-1.46;45.04
12664;BME280;6396;58.490;15.528;2023-03-04T06:34:37;99906.31;;;-2.21;45.79
12664;BME280;6396;58.490;15.528;2023-03-04T06:37:04;99868.34;;;-2.88;44.81
12664;BME280;6396;58.490;15.528;2023-03-04T06:39:31;100336.66;;;0.23;45.42
12664;BME280;6396;58.490;15.528;2023-03-04T06:41:58;100278.69;;;0.22;46.65
12664;BME280;6396;58.490;15.528;2023-03-04T06:44:25;100248.88;;;-0.18;45.87
12664;BME280;6396;58.490;15.528;2023-03-04T06:46:53;99970.97;;;-1.56;45.14
12664;BME280;6396;58.490;15.528;2023-03-04T06:49:20;100108.78;;;-1.01;45.68
12664;BME280;6396;58.490;15.528;2023-03-04T06:51:47;100060.81;;;-1.44;45.24
12664;BME280;6396;58.490;15.528;2023-03-04T06:54:13;100285.59;;;0.25;45.25
12664;BME280;6396;58.490;15.528;2023-03-04T06:56:40;99923.16;;;-1.86;44.82
12664;BME280;6396;58.490;15.528;2023-03-04T06:59:07;99950.84;;;-1.76;44.89
12664;BME280;6396;58.490;15.528;2023-03-04T07:01:34;100293.44;;;0.29;45.02
12664;BME280;6396;58.490;15.528;2023-03-04T07:04:02;100193.41;;;-0.27;44.97
12664;BME280;6396;58.490;15.528;2023-03-04T07:06:29;100072.63;;;-0.91;44.60
12664;BME280;6396;58.490;15.528;2023-03-04T07:08:56;100191.38;;;-0.57;45.41
12664;BME280;6396;58.490;15.528;2023-03-04T07:11:24;100219.50;;;-0.14;45.43
12664;BME280;6396;58.490;15.528;2023-03-04T07:13:51;100083.16;;;-0.77;45.23
12664;BME280;6396;58.490;15.528;2023-03-04T07:16:21;100270.28;;;2.15;43.24
12664;BME280;6396;58.490;15.528;2023-03-04T07:18:52;100117.47;;;2.51;42.56
12664;BME280;6396;58.490;15.528;2023-03-04T07:21:21;100114.63;;;3.26;40.90
12664;BME280;6396;58.490;15.528;2023-03-04T07:23:48;100210.91;;;4.89;40.34
12664;BME280;6396;58.490;15.528;2023-03-04T07:26:15;100288.25;;;5.93;39.51
12664;BME280;6396;58.490;15.528;2023-03-04T07:28:42;99521.84;;;1.60;38.33
12664;BME280;6396;58.490;15.528;2023-03-04T07:31:18;99624.31;;;2.47;38.46
12664;BME280;6396;58.490;15.528;2023-03-04T07:33:48;99924.53;;;4.58;36.82
12664;BME280;6396;58.490;15.528;2023-03-04T07:36:35;99953.56;;;4.99;35.37
12664;BME280;6396;58.490;15.528;2023-03-04T07:39:17;100350.66;;;6.92;34.65
12664;BME280;6396;58.490;15.528;2023-03-04T07:41:44;99775.00;;;4.36;37.87
12664;BME280;6396;58.490;15.528;2023-03-04T07:44:17;99849.25;;;4.80;35.94
12664;BME280;6396;58.490;15.528;2023-03-04T07:46:56;100008.94;;;5.86;36.86
12664;BME280;6396;58.490;15.528;2023-03-04T07:49:29;99850.41;;;5.17;34.13
12664;BME280;6396;58.490;15.528;2023-03-04T07:52:04;100364.06;;;8.20;35.06
12664;BME280;6396;58.490;15.528;2023-03-04T07:54:34;99809.50;;;5.58;35.02
12664;BME280;6396;58.490;15.528;2023-03-04T07:57:01;99824.53;;;5.49;35.38
12664;BME280;6396;58.490;15.528;2023-03-04T07:59:28;99943.09;;;6.06;35.76
12664;BME280;6396;58.490;15.528;2023-03-04T08:01:55;100106.75;;;6.86;34.58
12664;BME280;6396;58.490;15.528;2023-03-04T08:04:22;99741.50;;;4.61;34.70
12664;BME280;6396;58.490;15.528;2023-03-04T08:06:49;99554.38;;;3.49;35.04
12664;BME280;6396;58.490;15.528;2023-03-04T08:09:17;100031.84;;;5.70;35.46
12664;BME280;6396;58.490;15.528;2023-03-04T08:11:44;100314.97;;;6.22;36.16
12664;BME280;6396;58.490;15.528;2023-03-04T08:14:12;99836.84;;;2.74;37.34
12664;BME280;6396;58.490;15.528;2023-03-04T08:16:39;100004.78;;;3.62;37.38
12664;BME280;6396;58.490;15.528;2023-03-04T08:19:07;100096.56;;;4.18;37.64
12664;BME280;6396;58.490;15.528;2023-03-04T08:21:34;100343.97;;;5.25;38.18
12664;BME280;6396;58.490;15.528;2023-03-04T08:24:02;99615.97;;;0.46;37.56
12664;BME280;6396;58.490;15.528;2023-03-04T08:26:36;99628.75;;;1.10;37.56
12664;BME280;6396;58.490;15.528;2023-03-04T08:29:10;99457.03;;;-0.72;38.64
12664;BME280;6396;58.490;15.528;2023-03-04T08:31:46;100105.00;;;3.32;37.19
12664;BME280;6396;58.490;15.528;2023-03-04T08:34:17;99980.03;;;3.01;38.15
12664;BME280;6396;58.490;15.528;2023-03-04T08:36:46;99561.56;;;-0.21;38.84
12664;BME280;6396;58.490;15.528;2023-03-04T08:39:38;99402.59;;;-0.48;38.35
12664;BME280;6396;58.490;15.528;2023-03-04T08:42:10;99426.78;;;-0.28;37.57
12664;BME280;6396;58.490;15.528;2023-03-04T08:44:37;99460.38;;;0.10;37.84
12664;BME280;6396;58.490;15.528;2023-03-04T08:47:04;99501.06;;;-0.09;37.24
12664;BME280;6396;58.490;15.528;2023-03-04T08:49:33;99800.94;;;1.77;38.17
12664;BME280;6396;58.490;15.528;2023-03-04T08:52:01;99834.03;;;1.36;37.58
12664;BME280;6396;58.490;15.528;2023-03-04T08:54:31;100362.63;;;4.88;37.56
12664;BME280;6396;58.490;15.528;2023-03-04T08:57:01;100113.66;;;3.43;36.63
12664;BME280;6396;58.490;15.528;2023-03-04T08:59:30;100163.13;;;3.62;37.48
12664;BME280;6396;58.490;15.528;2023-03-04T09:01:57;99819.19;;;1.76;37.88
12664;BME280;6396;58.490;15.528;2023-03-04T09:04:24;99506.16;;;0.21;38.99
12664;BME280;6396;58.490;15.528;2023-03-04T09:06:51;100004.25;;;3.15;39.26
12664;BME280;6396;58.490;15.528;2023-03-04T09:09:18;100398.72;;;5.51;39.52
12664;BME280;6396;58.490;15.528;2023-03-04T09:11:45;100232.28;;;5.27;38.57
12664;BME280;6396;58.490;15.528;2023-03-04T09:14:12;99488.25;;;1.36;38.76
12664;BME280;6396;58.490;15.528;2023-03-04T09:16:41;100038.91;;;4.36;37.42
12664;BME280;6396;58.490;15.528;2023-03-04T09:19:12;99586.94;;;2.51;37.27
12664;BME280;6396;58.490;15.528;2023-03-04T09:21:39;100343.31;;;7.62;37.32
12664;BME280;6396;58.490;15.528;2023-03-04T09:24:07;100417.69;;;7.65;35.45
12664;BME280;6396;58.490;15.528;2023-03-04T09:26:37;99859.94;;;5.21;34.51
12664;BME280;6396;58.490;15.528;2023-03-04T09:29:04;99918.31;;;5.75;35.45
12664;BME280;6396;58.490;15.528;2023-03-04T09:31:31;100440.00;;;8.79;34.68
12664;BME280;6396;58.490;15.528;2023-03-04T09:34:09;100323.72;;;8.62;33.36
12664;BME280;6396;58.490;15.528;2023-03-04T09:36:36;99908.03;;;6.11;35.24
12664;BME280;6396;58.490;15.528;2023-03-04T09:39:04;100209.91;;;8.52;34.66
12664;BME280;6396;58.490;15.528;2023-03-04T09:41:36;99867.00;;;6.12;32.67
12664;BME280;6396;58.490;15.528;2023-03-04T09:44:12;100097.94;;;7.69;32.35
12664;BME280;6396;58.490;15.528;2023-03-04T09:46:42;100094.19;;;8.16;34.14
12664;BME280;6396;58.490;15.528;2023-03-04T09:49:21;100335.56;;;9.16;32.99
12664;BME280;6396;58.490;15.528;2023-03-04T09:52:01;99624.59;;;4.69;32.33
12664;BME280;6396;58.490;15.528;2023-03-04T09:54:50;99668.81;;;4.81;32.67
12664;BME280;6396;58.490;15.528;2023-03-04T09:57:27;99692.06;;;3.93;34.37
12664;BME280;6396;58.490;15.528;2023-03-04T10:00:04;99817.72;;;4.32;34.37
12664;BME280;6396;58.490;15.528;2023-03-04T10:02:43;100234.66;;;6.17;33.60
12664;BME280;6396;58.490;15.528;2023-03-04T10:19:33;99952.47;;;3.77;35.89
12664;BME280;6396;58.490;15.528;2023-03-04T10:26:13;100341.19;;;6.19;36.43
12664;BME280;6396;58.490;15.528;2023-03-04T10:29:28;100342.03;;;6.23;37.08
12664;BME280;6396;58.490;15.528;2023-03-04T10:32:02;100371.75;;;6.23;37.11
12664;BME280;6396;58.490;15.528;2023-03-04T10:38:23;100058.91;;;5.13;37.11
12664;BME280;6396;58.490;15.528;2023-03-04T10:41:00;99407.88;;;1.09;35.58
12664;BME280;6396;58.490;15.528;2023-03-04T10:43:28;100052.25;;;5.50;37.09
12664;BME280;6396;58.490;15.528;2023-03-04T10:46:05;99804.25;;;3.97;36.31
12664;BME280;6396;58.490;15.528;2023-03-04T10:48:32;100316.78;;;6.76;35.89
12664;BME280;6396;58.490;15.528;2023-03-04T10:51:15;99791.88;;;3.43;36.71
12664;BME280;6396;58.490;15.528;2023-03-04T10:53:46;100189.03;;;5.67;37.17
12664;BME280;6396;58.490;15.528;2023-03-04T10:56:51;99993.38;;;4.55;36.68
12664;BME280;6396;58.490;15.528;2023-03-04T11:02:22;100243.69;;;5.22;37.88
12664;BME280;6396;58.490;15.528;2023-03-04T11:04:52;99978.97;;;4.20;38.32
12664;BME280;6396;58.490;15.528;2023-03-04T11:07:21;100181.59;;;4.55;36.71
12664;BME280;6396;58.490;15.528;2023-03-04T11:09:50;100343.28;;;5.96;37.87
12664;BME280;6396;58.490;15.528;2023-03-04T11:12:19;100201.09;;;5.11;38.21
12664;BME280;6396;58.490;15.528;2023-03-04T11:14:51;99488.63;;;0.80;37.61
12664;BME280;6396;58.490;15.528;2023-03-04T11:17:41;99384.78;;;0.68;35.67
12664;BME280;6396;58.490;15.528;2023-03-04T11:20:13;99874.06;;;3.85;38.03
12664;BME280;6396;58.490;15.528;2023-03-04T11:22:45;100091.84;;;4.55;38.51
12664;BME280;6396;58.490;15.528;2023-03-04T11:25:22;100329.94;;;6.13;38.66
12664;BME280;6396;58.490;15.528;2023-03-04T11:28:00;100130.72;;;5.58;37.53
12664;BME280;6396;58.490;15.528;2023-03-04T11:30:33;99947.91;;;4.67;37.15
12664;BME280;6396;58.490;15.528;2023-03-04T11:33:10;99680.19;;;3.02;36.56
12664;BME280;6396;58.490;15.528;2023-03-04T11:35:46;100007.66;;;4.27;35.78
12664;BME280;6396;58.490;15.528;2023-03-04T11:38:18;99933.91;;;4.73;36.64
12664;BME280;6396;58.490;15.528;2023-03-04T11:40:51;100304.00;;;7.09;36.03
12664;BME280;6396;58.490;15.528;2023-03-04T11:43:26;100310.94;;;7.13;36.68
12664;BME280;6396;58.490;15.528;2023-03-04T11:49:52;100327.53;;;7.15;35.26
12664;BME280;6396;58.490;15.528;2023-03-04T11:52:59;100284.13;;;7.43;37.02
12664;BME280;6396;58.490;15.528;2023-03-04T11:55:35;99802.25;;;4.77;35.06
12664;BME280;6396;58.490;15.528;2023-03-04T11:58:18;99974.00;;;5.87;35.38
12664;BME280;6396;58.490;15.528;2023-03-04T12:00:52;100126.94;;;6.80;35.48
12664;BME280;6396;58.490;15.528;2023-03-04T12:03:44;100308.31;;;7.60;35.29
12664;BME280;6396;58.490;15.528;2023-03-04T12:06:21;100286.97;;;8.18;35.04
12664;BME280;6396;58.490;15.528;2023-03-04T12:09:07;100286.59;;;8.36;34.16
12664;BME280;6396;58.490;15.528;2023-03-04T12:11:42;99687.25;;;4.75;33.83
12664;BME280;6396;58.490;15.528;2023-03-04T12:14:29;99546.19;;;3.72;32.50
12664;BME280;6396;58.490;15.528;2023-03-04T12:17:37;100298.19;;;8.27;34.20
12664;BME280;6396;58.490;15.528;2023-03-04T12:20:23;100281.09;;;8.46;35.83
12664;BME280;6396;58.490;15.528;2023-03-04T12:22:58;100342.84;;;8.68;35.99
12664;BME280;6396;58.490;15.528;2023-03-04T12:25:41;100289.84;;;8.48;33.95
12664;BME280;6396;58.490;15.528;2023-03-04T12:31:36;100282.09;;;8.41;35.81
12664;BME280;6396;58.490;15.528;2023-03-04T12:34:49;100285.53;;;8.44;36.04
12664;BME280;6396;58.490;15.528;2023-03-04T12:37:43;99751.22;;;5.05;34.69
12664;BME280;6396;58.490;15.528;2023-03-04T12:40:46;99755.59;;;5.03;35.42
12664;BME280;6396;58.490;15.528;2023-03-04T12:43:29;100152.78;;;6.54;36.29
12664;BME280;6396;58.490;15.528;2023-03-04T12:46:10;99492.09;;;3.28;34.96
12664;BME280;6396;58.490;15.528;2023-03-04T12:48:41;100344.44;;;7.93;36.31
12664;BME280;6396;58.490;15.528;2023-03-04T12:51:21;100272.75;;;7.86;35.07
12664;BME280;6396;58.490;15.528;2023-03-04T12:53:59;99897.47;;;5.70;35.03
12664;BME280;6396;58.490;15.528;2023-03-04T12:56:36;100068.75;;;6.60;35.38
12664;BME280;6396;58.490;15.528;2023-03-04T12:59:09;99832.84;;;4.72;36.35
12664;BME280;6396;58.490;15.528;2023-03-04T13:01:43;99936.28;;;5.96;36.57
12664;BME280;6396;58.490;15.528;2023-03-04T13:04:20;100301.72;;;7.83;35.66
12664;BME280;6396;58.490;15.528;2023-03-04T13:06:59;99921.84;;;5.72;36.16
12664;BME280;6396;58.490;15.528;2023-03-04T13:09:36;100321.31;;;7.67;35.04
12664;BME280;6396;58.490;15.528;2023-03-04T13:12:14;100319.56;;;7.68;35.10
12664;BME280;6396;58.490;15.528;2023-03-04T13:15:33;100208.28;;;7.26;35.51
12664;BME280;6396;58.490;15.528;2023-03-04T13:18:03;99930.91;;;5.54;35.91
12664;BME280;6396;58.490;15.528;2023-03-04T13:21:05;99565.56;;;2.95;35.58
12664;BME280;6396;58.490;15.528;2023-03-04T13:23:33;99909.41;;;4.78;36.73
12664;BME280;6396;58.490;15.528;2023-03-04T13:26:27;99947.50;;;5.53;35.42
12664;BME280;6396;58.490;15.528;2023-03-04T13:29:29;100181.22;;;6.77;36.18
12664;BME280;6396;58.490;15.528;2023-03-04T13:32:00;100202.06;;;6.85;36.05
12664;BME280;6396;58.490;15.528;2023-03-04T13:34:49;99852.81;;;4.77;36.82
12664;BME280;6396;58.490;15.528;2023-03-04T13:37:28;99921.84;;;5.22;35.96
12664;BME280;6396;58.490;15.528;2023-03-04T13:40:29;100242.56;;;7.20;36.03
12664;BME280;6396;58.490;15.528;2023-03-04T13:43:23;99808.53;;;4.67;36.20
12664;BME280;6396;58.490;15.528;2023-03-04T13:45:50;100333.59;;;7.18;37.64
12664;BME280;6396;58.490;15.528;2023-03-04T13:48:26;100275.94;;;7.12;37.43
12664;BME280;6396;58.490;15.528;2023-03-04T13:50:54;100012.38;;;5.32;36.58
12664;BME280;6396;58.490;15.528;2023-03-04T13:53:30;100257.88;;;6.96;37.32
12664;BME280;6396;58.490;15.528;2023-03-04T13:56:04;100276.13;;;7.03;37.47
12664;BME280;6396;58.490;15.528;2023-03-04T13:58:32;99816.75;;;4.39;37.76